Time;durP1;ratioP1;P1;durP2;ratioP2;P2;SDS_P1;SDS_P2;PMS_P1;PMS_P2;Temp;Humidity;BMP_temperature;BMP_pressure;BME280_temperature;BME280_humidity;BME280_pressure;Samples;Min_cycle;Max_cycle;Signal;HPM_P1;HPM_P2
2023/07/07 00:00:46;;;;;;;;;4.33;4.33;;;;;22.66;37.40;101139.28;5077753;28;45343;-69
2023/07/07 00:03:11;;;;;;;;;7.67;4.33;;;;;22.63;37.92;101133.47;5078015;27;45348;-66
2023/07/07 00:05:36;;;;;;;;;3.67;3.67;;;;;22.51;37.78;101122.44;5077524;27;46446;-67
2023/07/07 00:08:02;;;;;;;;;8.00;6.00;;;;;22.57;37.40;101140.53;5058784;28;45937;-68
2023/07/07 00:10:27;;;;;;;;;7.33;5.00;;;;;22.53;38.09;101131.19;5077283;27;45277;-66
2023/07/07 00:12:53;;;;;;;;;5.67;4.67;;;;;22.51;37.61;101138.69;5059280;28;45276;-66
2023/07/07 00:15:18;;;;;;;;;7.00;7.00;;;;;22.39;37.39;101118.72;5077284;27;45768;-69
2023/07/07 00:17:47;;;;;;;;;8.00;7.67;;;;;22.47;37.99;101137.47;5077052;27;45246;-67
2023/07/07 00:20:14;;;;;;;;;28.00;21.33;;;;;22.13;37.72;101085.25;5077363;28;45273;-67
2023/07/07 00:22:40;;;;;;;;;7.67;6.33;;;;;22.44;37.81;101137.91;5059183;28;45573;-66
2023/07/07 00:25:07;;;;;;;;;22.67;18.33;;;;;22.40;38.29;101136.63;5076761;28;45956;-67
2023/07/07 00:27:32;;;;;;;;;12.33;11.33;;;;;22.37;38.26;101145.19;5076792;28;45332;-67
2023/07/07 00:29:57;;;;;;;;;8.00;7.00;;;;;22.32;38.16;101145.81;5077202;28;45493;-66
2023/07/07 00:32:23;;;;;;;;;12.67;11.00;;;;;22.32;38.13;101142.28;5058923;28;45575;-67
2023/07/07 00:34:49;;;;;;;;;7.33;6.00;;;;;22.20;38.32;101130.41;5077112;28;45895;-69
2023/07/07 00:37:14;;;;;;;;;4.33;3.00;;;;;22.13;37.77;101120.44;5077090;28;45264;-69
2023/07/07 00:39:39;;;;;;;;;6.67;5.00;;;;;22.27;38.23;101142.09;5058668;28;45409;-68
2023/07/07 00:42:05;;;;;;;;;8.33;8.33;;;;;22.19;38.12;101117.94;5077304;28;45364;-66
2023/07/07 00:45:11;;;;;;;;;6.00;5.67;;;;;22.23;38.34;101124.59;5077071;28;46672;-67
2023/07/07 00:47:49;;;;;;;;;6.67;5.33;;;;;22.19;38.30;101128.75;5076370;28;45559;-67
2023/07/07 00:50:19;;;;;;;;;5.33;4.67;;;;;22.17;38.15;101127.09;5076911;28;45440;-65
2023/07/07 00:52:45;;;;;;;;;6.00;5.00;;;;;22.18;38.66;101127.94;5077335;28;45427;-67
2023/07/07 00:55:17;;;;;;;;;6.33;5.33;;;;;22.14;38.49;101138.34;5058603;28;48743;-67
2023/07/07 00:57:42;;;;;;;;;3.00;3.00;;;;;21.66;38.55;101053.00;5076757;28;45281;-68
2023/07/07 01:00:09;;;;;;;;;6.67;4.00;;;;;21.95;38.41;101100.44;5076741;27;45481;-67
2023/07/07 01:02:34;;;;;;;;;6.67;5.00;;;;;22.07;38.38;101120.47;5077956;27;45283;-68
2023/07/07 01:05:03;;;;;;;;;4.00;2.33;;;;;21.93;38.29;101095.22;5080390;28;45673;-68
2023/07/07 01:07:34;;;;;;;;;4.33;3.00;;;;;22.05;38.53;101117.97;5080205;27;45490;-69
2023/07/07 01:10:00;;;;;;;;;5.33;5.33;;;;;22.05;38.52;101115.25;5080182;28;45447;-68
2023/07/07 01:12:25;;;;;;;;;5.00;5.00;;;;;21.41;38.40;101004.91;5080645;28;45365;-68
2023/07/07 01:14:51;;;;;;;;;4.00;3.67;;;;;22.00;38.49;101104.16;5080255;27;45591;-67
2023/07/07 01:17:52;;;;;;;;;6.33;4.00;;;;;22.08;38.47;101105.88;5080317;27;45283;-68
2023/07/07 01:20:21;;;;;;;;;3.33;3.33;;;;;22.04;38.58;101110.88;5059875;28;45439;-69
2023/07/07 01:23:06;;;;;;;;;6.00;5.00;;;;;22.03;38.69;101111.91;5060114;28;45417;-67
2023/07/07 01:25:58;;;;;;;;;3.00;3.00;;;;;22.04;38.63;101116.31;5059386;28;46266;-66
2023/07/07 01:28:48;;;;;;;;;7.67;7.00;;;;;21.94;38.65;101104.19;5059621;28;45288;-67
2023/07/07 01:31:18;;;;;;;;;4.33;3.00;;;;;21.96;38.98;101108.34;5059688;28;45502;-67
2023/07/07 01:33:46;;;;;;;;;4.67;4.67;;;;;21.98;38.73;101111.66;5059821;28;45329;-66
2023/07/07 01:36:11;;;;;;;;;6.00;4.67;;;;;21.92;38.68;101107.09;5058222;28;48582;-68
2023/07/07 01:38:41;;;;;;;;;3.33;3.33;;;;;21.95;38.67;101105.84;5059382;28;45514;-66
2023/07/07 01:41:20;;;;;;;;;7.00;7.00;;;;;21.93;38.81;101108.78;5059974;28;45411;-71
2023/07/07 01:43:57;;;;;;;;;4.00;4.00;;;;;21.90;38.80;101103.78;5059824;28;45420;-69
2023/07/07 01:46:36;;;;;;;;;3.00;3.00;;;;;21.56;38.88;101065.06;5059461;28;45285;-65
2023/07/07 01:49:16;;;;;;;;;1.67;0.67;;;;;21.87;39.05;101109.63;5072405;28;45316;-69
2023/07/07 01:52:03;;;;;;;;;3.33;3.33;;;;;21.91;39.14;101112.72;5079650;28;45435;-67
2023/07/07 01:54:33;;;;;;;;;6.33;4.67;;;;;21.89;39.24;101107.53;5079644;27;45455;-67
2023/07/07 01:57:01;;;;;;;;;3.00;2.67;;;;;21.84;39.03;101093.81;5079252;28;46456;-68
2023/07/07 01:59:27;;;;;;;;;5.67;5.67;;;;;21.90;39.31;101109.19;5079460;27;45485;-67
2023/07/07 02:01:55;;;;;;;;;2.33;2.33;;;;;21.85;39.11;101101.72;5079652;27;45228;-68
2023/07/07 02:04:20;;;;;;;;;4.00;4.00;;;;;21.83;39.28;101092.13;5079755;27;45386;-68
2023/07/07 02:06:46;;;;;;;;;6.00;5.33;;;;;21.86;39.08;101097.13;5060970;27;46243;-67
2023/07/07 02:09:11;;;;;;;;;6.67;5.00;;;;;21.86;39.39;101099.84;5079023;28;45289;-68
2023/07/07 02:11:36;;;;;;;;;3.67;3.67;;;;;21.87;39.50;101109.63;5079499;27;45322;-68
2023/07/07 02:14:02;;;;;;;;;5.33;4.33;;;;;21.88;39.67;101102.31;5060786;28;45329;-68
2023/07/07 02:16:27;;;;;;;;;5.00;4.00;;;;;21.63;39.41;101059.66;5060296;28;53850;-68
2023/07/07 02:18:52;;;;;;;;;3.33;3.33;;;;;21.79;39.51;101083.56;5078859;27;45674;-68
2023/07/07 02:21:18;;;;;;;;;4.00;3.33;;;;;21.87;39.63;101098.78;5079390;27;45430;-68
2023/07/07 02:23:44;;;;;;;;;6.00;6.00;;;;;21.87;39.44;101104.19;5079203;28;46330;-69
2023/07/07 02:26:14;;;;;;;;;5.00;4.00;;;;;21.84;40.00;101097.34;5079026;28;45807;-69
2023/07/07 02:28:40;;;;;;;;;6.00;4.00;;;;;21.83;39.54;101100.25;5060480;28;46485;-69
2023/07/07 02:31:06;;;;;;;;;6.00;5.00;;;;;21.72;39.62;101079.22;5079001;28;45390;-66
2023/07/07 02:33:32;;;;;;;;;3.33;3.33;;;;;21.73;39.57;101089.00;5060979;28;45427;-67
2023/07/07 02:36:02;;;;;;;;;4.00;4.00;;;;;21.71;39.65;101096.50;5078680;27;46410;-66
2023/07/07 02:38:28;;;;;;;;;6.00;6.00;;;;;21.64;39.79;101074.03;5079107;28;45281;-67
2023/07/07 02:40:53;;;;;;;;;5.33;5.33;;;;;21.51;39.59;101062.16;5078730;28;45470;-66
2023/07/07 02:43:19;;;;;;;;;8.67;6.00;;;;;21.53;39.55;101078.19;5079176;28;45304;-67
2023/07/07 02:45:44;;;;;;;;;6.67;5.00;;;;;21.59;39.61;101090.88;5078552;27;54490;-65
2023/07/07 02:48:09;;;;;;;;;4.33;4.33;;;;;21.47;39.57;101082.56;5078000;28;45400;-67
2023/07/07 02:50:35;;;;;;;;;4.00;4.00;;;;;21.46;39.88;101080.88;5078296;27;53049;-67
2023/07/07 02:53:00;;;;;;;;;4.67;4.00;;;;;21.47;40.07;101085.25;5079058;27;45541;-68
2023/07/07 02:55:25;;;;;;;;;4.00;3.00;;;;;21.46;39.94;101080.88;5060221;28;47431;-67
2023/07/07 02:57:51;;;;;;;;;5.33;4.67;;;;;21.38;39.82;101083.78;5078399;28;45418;-68
2023/07/07 03:00:16;;;;;;;;;5.00;4.00;;;;;21.40;39.98;101091.69;5078770;28;45388;-68
2023/07/07 03:02:42;;;;;;;;;2.67;2.67;;;;;21.38;39.89;101097.31;5078851;28;45426;-66
2023/07/07 03:05:08;;;;;;;;;5.33;3.33;;;;;21.37;39.80;101095.63;5059965;28;47938;-67
2023/07/07 03:07:34;;;;;;;;;3.00;3.00;;;;;21.35;39.49;101089.59;5078248;27;45474;-66
2023/07/07 03:09:59;;;;;;;;;4.00;4.00;;;;;21.17;40.04;101049.59;5060212;28;45478;-67
2023/07/07 03:12:25;;;;;;;;;3.33;3.33;;;;;21.37;40.02;101087.53;5078595;28;45652;-67
2023/07/07 03:14:57;;;;;;;;;5.67;5.00;;;;;21.39;39.90;101088.16;5078240;27;46228;-65
2023/07/07 03:17:22;;;;;;;;;5.67;3.67;;;;;21.36;40.21;101091.28;5077996;28;45359;-69
2023/07/07 03:19:48;;;;;;;;;4.00;3.33;;;;;21.35;40.32;101092.31;5078525;27;45641;-68
2023/07/07 03:22:13;;;;;;;;;3.67;3.67;;;;;21.31;39.95;101088.34;5078507;27;45466;-67
2023/07/07 03:24:39;;;;;;;;;5.00;3.67;;;;;21.07;40.29;101037.53;5078010;28;46129;-67
2023/07/07 03:27:05;;;;;;;;;5.33;5.00;;;;;21.21;40.44;101077.91;5076723;28;52632;-67
2023/07/07 03:29:30;;;;;;;;;6.00;6.00;;;;;21.24;40.54;101082.13;5078306;28;45290;-66
2023/07/07 03:31:55;;;;;;;;;5.00;5.00;;;;;21.12;40.30;101068.31;5078349;27;45575;-69
2023/07/07 03:34:20;;;;;;;;;4.67;4.00;;;;;21.24;40.54;101076.72;5059717;27;48341;-66
2023/07/07 03:36:46;;;;;;;;;5.00;4.67;;;;;21.17;40.92;101081.22;5059775;28;46514;-67
2023/07/07 03:39:11;;;;;;;;;7.00;5.00;;;;;21.17;40.72;101086.63;5077723;28;49425;-66
2023/07/07 03:41:36;;;;;;;;;6.00;6.00;;;;;21.07;40.77;101075.41;5078273;27;45171;-67
2023/07/07 03:44:02;;;;;;;;;4.33;4.33;;;;;20.92;41.09;101062.88;5059771;28;45677;-67
2023/07/07 03:46:28;;;;;;;;;4.33;3.00;;;;;21.06;41.21;101079.97;5077780;28;45477;-67
2023/07/07 03:48:56;;;;;;;;;4.00;4.00;;;;;21.09;41.13;101084.13;5077612;27;45367;-67
2023/07/07 03:51:23;;;;;;;;;5.67;5.00;;;;;21.01;41.47;101093.25;5077940;28;45454;-69
2023/07/07 03:53:49;;;;;;;;;4.33;4.33;;;;;20.86;41.17;101074.50;5077313;28;47881;-67
2023/07/07 03:56:16;;;;;;;;;5.33;4.33;;;;;20.96;41.43;101085.75;5077514;28;45260;-66
2023/07/07 03:58:42;;;;;;;;;7.33;5.67;;;;;20.95;41.25;101088.66;5077561;28;45264;-67
2023/07/07 04:01:10;;;;;;;;;7.67;4.33;;;;;20.98;41.46;101085.53;5078164;28;45370;-67
2023/07/07 04:03:36;;;;;;;;;4.00;4.00;;;;;20.76;41.33;101057.84;5077351;28;45607;-66
2023/07/07 04:06:03;;;;;;;;;7.00;5.00;;;;;20.88;41.70;101087.81;5077657;28;45506;-67
2023/07/07 04:08:29;;;;;;;;;5.00;4.00;;;;;20.67;41.60;101052.81;5077500;28;45381;-66
2023/07/07 04:11:12;;;;;;;;;4.00;4.00;;;;;20.75;41.61;101077.78;5077075;27;45333;-68
2023/07/07 04:13:40;;;;;;;;;6.00;5.00;;;;;20.86;41.70;101088.03;5077304;27;45265;-67
2023/07/07 04:16:14;;;;;;;;;6.00;4.00;;;;;20.88;41.67;101098.63;5058884;27;45337;-68
2023/07/07 04:18:41;;;;;;;;;7.33;3.33;;;;;20.89;41.47;101098.41;5055827;28;45330;-67
2023/07/07 04:21:09;;;;;;;;;5.33;5.33;;;;;20.84;42.09;101092.81;5057478;28;45508;-67
2023/07/07 04:23:37;;;;;;;;;5.33;5.33;;;;;20.82;42.17;101084.06;5056421;28;45683;-67
2023/07/07 04:26:03;;;;;;;;;7.67;7.00;;;;;20.86;42.44;101100.72;5056900;28;45297;-67
2023/07/07 04:28:32;;;;;;;;;5.67;5.67;;;;;20.88;42.35;101099.47;5056818;28;45537;-67
2023/07/07 04:30:58;;;;;;;;;6.33;5.00;;;;;20.92;42.00;101108.81;5038976;28;45585;-68
2023/07/07 04:33:25;;;;;;;;;7.33;6.00;;;;;20.97;42.08;101108.22;5056688;28;46602;-67
2023/07/07 04:35:57;;;;;;;;;6.67;5.33;;;;;21.01;41.92;101108.63;5056870;28;45362;-67
2023/07/07 04:38:30;;;;;;;;;5.00;5.00;;;;;20.99;42.04;101116.09;5058780;28;45330;-69
2023/07/07 04:41:05;;;;;;;;;5.67;5.67;;;;;21.03;42.22;101106.59;5060439;28;45513;-68
2023/07/07 04:43:32;;;;;;;;;7.67;5.00;;;;;20.96;42.26;101096.56;5059963;28;46803;-69
2023/07/07 04:45:58;;;;;;;;;5.00;5.00;;;;;21.08;42.21;101110.34;5060342;28;45536;-67
2023/07/07 04:48:23;;;;;;;;;3.67;3.67;;;;;20.80;42.05;101052.84;5074390;28;45178;-66
2023/07/07 04:50:48;;;;;;;;;3.67;3.67;;;;;21.12;41.70;101100.78;5081011;28;45413;-68
2023/07/07 04:53:14;;;;;;;;;4.67;4.33;;;;;21.19;41.72;101100.78;5080494;27;46669;-67
2023/07/07 04:55:42;;;;;;;;;5.00;5.00;;;;;21.19;41.93;101092.66;5080185;27;45240;-66
2023/07/07 04:58:08;;;;;;;;;6.00;4.00;;;;;21.19;41.38;101095.38;5080538;28;45482;-67
2023/07/07 05:00:33;;;;;;;;;6.33;5.67;;;;;21.29;41.57;101106.66;5062543;28;45474;-67
2023/07/07 05:02:59;;;;;;;;;6.00;5.67;;;;;21.29;41.73;101106.66;5080037;27;46119;-67
2023/07/07 05:05:24;;;;;;;;;6.67;5.67;;;;;21.28;41.72;101106.88;5080287;27;45457;-67
2023/07/07 05:07:49;;;;;;;;;8.00;6.67;;;;;21.24;42.03;101109.16;5077832;28;45577;-66
2023/07/07 05:10:15;;;;;;;;;6.00;6.00;;;;;21.22;41.64;101108.47;5066011;27;45526;-67
2023/07/07 05:12:41;;;;;;;;;6.00;5.00;;;;;20.93;41.58;101058.31;5078035;27;45629;-69
2023/07/07 05:15:06;;;;;;;;;7.33;6.00;;;;;20.89;41.69;101057.06;5049171;28;45586;-67
2023/07/07 05:17:32;;;;;;;;;8.67;7.00;;;;;20.89;41.97;101052.47;5059848;28;45273;-69
2023/07/07 05:19:57;;;;;;;;;8.00;7.00;;;;;21.21;42.13;101109.50;5060045;28;45451;-67
2023/07/07 05:22:22;;;;;;;;;6.00;4.00;;;;;21.25;41.94;101121.66;5078724;27;48036;-66
2023/07/07 05:24:48;;;;;;;;;8.00;7.00;;;;;20.76;42.23;101033.50;5079578;27;45268;-68
2023/07/07 05:27:14;;;;;;;;;5.67;5.67;;;;;21.20;42.34;101110.56;5060544;28;61389;-67
2023/07/07 05:29:40;;;;;;;;;3.67;2.00;;;;;21.20;42.31;101115.97;5078846;27;45375;-66
2023/07/07 05:32:06;;;;;;;;;5.33;5.00;;;;;21.15;41.89;101104.94;5077806;27;46761;-68
2023/07/07 05:34:31;;;;;;;;;6.00;5.00;;;;;21.25;42.24;101116.22;5078586;27;45577;-68
2023/07/07 05:36:57;;;;;;;;;6.33;6.33;;;;;20.87;42.35;101053.72;5079479;27;45370;-66
2023/07/07 05:39:22;;;;;;;;;7.67;6.67;;;;;21.19;42.19;101107.00;5077843;28;45407;-67
2023/07/07 05:41:47;;;;;;;;;4.33;4.33;;;;;21.34;42.34;101125.81;5079580;27;45299;-67
2023/07/07 05:44:13;;;;;;;;;6.00;4.33;;;;;21.32;42.31;101117.06;5079503;27;45439;-67
2023/07/07 05:46:38;;;;;;;;;16.00;9.67;;;;;21.39;42.29;101123.31;5079627;28;45493;-68
2023/07/07 05:49:03;;;;;;;;;5.00;5.00;;;;;21.43;42.17;101123.75;5078025;28;45377;-67
2023/07/07 05:51:29;;;;;;;;;6.00;5.67;;;;;21.50;42.18;101114.59;5076854;28;46819;-66
2023/07/07 05:53:54;;;;;;;;;6.00;5.67;;;;;21.27;42.24;101061.94;5079009;27;45281;-66
2023/07/07 05:56:23;;;;;;;;;5.00;5.00;;;;;21.68;41.77;101118.56;5079409;28;45455;-68
2023/07/07 05:58:50;;;;;;;;;6.33;5.00;;;;;21.83;42.07;101119.19;5079666;28;45233;-69
2023/07/07 06:01:15;;;;;;;;;8.00;7.00;;;;;21.91;41.82;101112.72;5077148;28;46604;-67
2023/07/07 06:03:42;;;;;;;;;6.00;5.00;;;;;22.07;41.98;101120.47;5060562;28;46203;-67
2023/07/07 06:06:07;;;;;;;;;7.67;6.67;;;;;22.32;41.75;101116.03;5079350;28;45328;-68
2023/07/07 06:08:33;;;;;;;;;8.00;7.33;;;;;23.02;40.29;101108.06;5078316;27;45509;-68
2023/07/07 06:10:59;;;;;;;;;9.00;7.67;;;;;23.81;40.01;101088.53;5078888;28;45356;-68
2023/07/07 06:13:25;;;;;;;;;6.00;5.00;;;;;24.67;37.32;101108.56;5077903;27;45265;-70
2023/07/07 06:15:51;;;;;;;;;6.00;4.00;;;;;25.06;37.18;101108.06;5060767;28;45312;-68
2023/07/07 06:18:16;;;;;;;;;7.33;6.00;;;;;25.12;37.08;101058.16;5079493;28;45259;-69
2023/07/07 06:20:50;;;;;;;;;7.67;7.00;;;;;25.57;36.43;101106.66;5076764;28;45759;-68
2023/07/07 06:23:15;;;;;;;;;7.33;5.33;;;;;25.58;35.62;101091.97;5078740;27;45208;-71
2023/07/07 06:25:41;;;;;;;;;7.00;7.00;;;;;25.63;35.60;101099.44;5074978;28;45442;-72
2023/07/07 06:28:06;;;;;;;;;7.00;6.00;;;;;25.86;36.21;101109.59;5067357;28;45277;-70
2023/07/07 06:30:32;;;;;;;;;5.33;4.33;;;;;25.93;34.76;101113.00;5074290;28;45801;-66
2023/07/07 06:32:58;;;;;;;;;6.00;6.00;;;;;25.86;35.04;101095.97;5077104;28;45452;-67
2023/07/07 06:35:25;;;;;;;;;6.00;6.00;;;;;26.03;35.57;101113.28;5058678;28;45175;-67
2023/07/07 06:37:50;;;;;;;;;10.67;9.67;;;;;26.18;35.75;101132.66;5078960;28;45285;-69
2023/07/07 06:40:16;;;;;;;;;8.00;6.00;;;;;25.88;34.44;101063.88;5077546;28;45753;-69
2023/07/07 06:42:41;;;;;;;;;4.00;4.00;;;;;26.29;34.74;101118.22;5066565;27;46649;-67
2023/07/07 06:45:07;;;;;;;;;7.33;5.33;;;;;26.26;34.70;101115.16;5062263;27;47242;-67
2023/07/07 06:47:32;;;;;;;;;6.33;6.00;;;;;26.30;34.61;101113.59;5065092;27;45442;-69
2023/07/07 06:49:58;;;;;;;;;7.00;5.33;;;;;26.31;34.80;101113.34;5087097;27;48960;-68
2023/07/07 06:52:23;;;;;;;;;7.67;6.00;;;;;26.40;33.87;101123.91;5096831;27;45439;-69
2023/07/07 06:54:48;;;;;;;;;10.33;7.67;;;;;26.34;34.50;101102.00;5076432;27;45319;-68
2023/07/07 06:57:14;;;;;;;;;7.67;7.00;;;;;26.44;34.35;101114.22;5058327;28;45545;-67
2023/07/07 06:59:39;;;;;;;;;8.33;5.67;;;;;26.46;34.34;101123.81;5076651;27;45356;-68
2023/07/07 07:02:09;;;;;;;;;10.00;7.00;;;;;26.46;34.94;101131.16;5076196;28;53598;-70
2023/07/07 07:04:34;;;;;;;;;8.33;7.00;;;;;26.45;34.60;101129.50;5077027;27;45423;-67
2023/07/07 07:07:00;;;;;;;;;9.00;6.00;;;;;26.42;34.30;101124.50;5077705;28;45189;-68
2023/07/07 07:09:26;;;;;;;;;6.33;3.67;;;;;26.07;35.12;101059.94;5086421;27;45454;-70
2023/07/07 07:11:52;;;;;;;;;7.67;7.00;;;;;26.54;34.93;101117.13;5077621;28;45591;-69
2023/07/07 07:14:17;;;;;;;;;6.00;6.00;;;;;26.67;34.51;101134.06;5061274;28;45328;-68
2023/07/07 07:16:42;;;;;;;;;5.00;5.00;;;;;26.77;34.14;101127.97;5078125;28;45591;-69
2023/07/07 07:19:08;;;;;;;;;9.33;6.33;;;;;26.73;34.45;101134.16;5087678;27;45718;-67
2023/07/07 07:21:33;;;;;;;;;6.33;5.67;;;;;26.24;34.13;101074.50;5094574;27;45282;-68
2023/07/07 07:23:59;;;;;;;;;9.00;8.00;;;;;26.55;34.70;101130.53;5092134;27;45485;-68
2023/07/07 07:26:24;;;;;;;;;9.00;7.33;;;;;26.09;34.17;101063.25;5071222;27;45485;-70
2023/07/07 07:28:51;;;;;;;;;4.67;4.00;;;;;26.36;34.37;101127.13;5069279;27;46450;-68
2023/07/07 07:31:17;;;;;;;;;9.33;7.67;;;;;26.47;35.02;101141.00;5076153;28;45536;-69
2023/07/07 07:33:42;;;;;;;;;6.67;6.67;;;;;26.45;35.50;101137.69;5079883;27;45487;-69
2023/07/07 07:36:07;;;;;;;;;8.00;5.67;;;;;26.49;34.57;101134.22;5077799;27;45571;-69
2023/07/07 07:38:33;;;;;;;;;6.33;6.33;;;;;26.41;34.67;101133.75;5077445;27;47619;-67
2023/07/07 07:40:58;;;;;;;;;5.33;5.33;;;;;26.29;34.50;101128.28;5056524;28;45397;-79
2023/07/07 07:43:24;;;;;;;;;10.67;9.67;;;;;26.34;34.33;101142.03;5055000;27;51705;-69
2023/07/07 07:45:49;;;;;;;;;7.67;6.00;;;;;26.40;35.32;101134.81;5077211;28;45488;-72
2023/07/07 07:48:14;;;;;;;;;7.00;7.00;;;;;26.09;34.56;101071.44;5041420;27;47722;-68
2023/07/07 07:50:40;;;;;;;;;8.67;8.67;;;;;26.48;34.55;101131.75;5025955;28;45277;-68
2023/07/07 07:53:13;;;;;;;;;7.33;6.33;;;;;26.15;35.06;101065.03;5077045;28;45397;-70
2023/07/07 07:55:38;;;;;;;;;10.00;9.33;;;;;26.55;34.31;101137.88;5058503;28;45506;-68
2023/07/07 07:58:04;;;;;;;;;7.67;7.67;;;;;26.51;34.82;101144.88;5051385;28;45618;-69
2023/07/07 08:00:29;;;;;;;;;7.00;7.00;;;;;26.47;34.54;101138.25;5063874;27;53473;-69
2023/07/07 08:02:54;;;;;;;;;7.67;7.33;;;;;26.37;35.34;101134.22;5077413;27;45332;-70
2023/07/07 08:05:20;;;;;;;;;9.00;7.33;;;;;25.37;35.17;100970.06;5076222;27;45266;-69
2023/07/07 08:07:45;;;;;;;;;7.00;6.33;;;;;26.49;34.39;101147.88;5057598;28;47848;-68
2023/07/07 08:10:11;;;;;;;;;7.00;6.33;;;;;26.44;35.11;101136.03;5074514;27;45547;-68
2023/07/07 08:12:36;;;;;;;;;3.33;3.33;;;;;26.37;34.89;101127.94;5059101;28;45567;-68
2023/07/07 08:15:02;;;;;;;;;5.67;5.67;;;;;26.51;34.86;101148.44;5057785;28;46659;-70
2023/07/07 08:17:28;;;;;;;;;7.00;6.00;;;;;26.59;35.17;101153.53;5069819;28;47809;-69
2023/07/07 08:19:54;;;;;;;;;5.67;5.00;;;;;26.61;34.88;101150.56;5076458;27;45292;-68
2023/07/07 08:22:24;;;;;;;;;6.33;6.00;;;;;26.63;35.12;101156.59;5075968;27;45471;-67
2023/07/07 08:24:55;;;;;;;;;8.33;7.67;;;;;26.59;35.06;101153.53;5080251;27;45547;-70
2023/07/07 08:27:23;;;;;;;;;8.00;8.00;;;;;26.63;35.15;101165.63;5057769;28;48115;-68
2023/07/07 08:29:49;;;;;;;;;5.67;5.33;;;;;26.64;36.15;101150.94;5072872;27;45573;-70
2023/07/07 08:32:23;;;;;;;;;9.00;8.00;;;;;26.64;35.86;101136.47;5072224;27;45221;-68
2023/07/07 08:34:50;;;;;;;;;7.00;7.00;;;;;26.66;35.41;101147.94;5075555;27;45549;-67
2023/07/07 08:37:17;;;;;;;;;7.33;6.33;;;;;26.59;35.87;101139.06;5081725;27;47540;-69
2023/07/07 08:39:43;;;;;;;;;10.00;8.67;;;;;26.60;35.56;101151.63;5083946;27;45537;-70
2023/07/07 08:42:33;;;;;;;;;8.00;8.00;;;;;26.59;36.34;101137.16;5074684;27;46145;-69
2023/07/07 08:45:01;;;;;;;;;9.33;7.00;;;;;26.56;36.20;101125.91;5074438;27;45536;-70
2023/07/07 08:47:46;;;;;;;;;7.67;7.67;;;;;26.68;35.89;101132.19;5073389;27;46642;-69
2023/07/07 08:50:22;;;;;;;;;8.00;8.00;;;;;26.67;35.83;101133.25;5073799;27;45715;-70
2023/07/07 08:52:59;;;;;;;;;6.67;5.00;;;;;26.70;35.62;101132.75;5075044;27;45419;-68
2023/07/07 08:55:39;;;;;;;;;9.00;8.00;;;;;26.67;35.74;101133.25;5076495;27;45423;-68
2023/07/07 08:58:20;;;;;;;;;8.67;7.00;;;;;26.76;35.93;101142.69;5074447;28;45682;-69
2023/07/07 09:01:04;;;;;;;;;7.00;7.00;;;;;26.20;35.80;101046.03;5064916;27;45995;-69
2023/07/07 09:03:45;;;;;;;;;11.67;9.00;;;;;26.79;35.71;101135.94;5077914;27;45590;-69
2023/07/07 09:06:20;;;;;;;;;10.33;9.00;;;;;26.85;35.87;101141.25;5057202;28;45528;-69
2023/07/07 09:09:13;;;;;;;;;8.00;8.00;;;;;27.01;36.73;101150.59;5064960;27;46004;-70
2023/07/07 09:12:18;;;;;;;;;8.00;7.00;;;;;27.17;36.19;101149.00;5092532;27;45359;-72
2023/07/07 09:14:47;;;;;;;;;8.67;8.67;;;;;27.26;35.37;101142.09;5083454;27;45281;-69
2023/07/07 09:17:22;;;;;;;;;8.67;7.00;;;;;27.07;35.35;101096.97;5096715;27;45481;-73
2023/07/07 09:19:48;;;;;;;;;7.00;6.67;;;;;27.39;35.31;101146.38;5080043;27;45407;-69
2023/07/07 09:22:26;;;;;;;;;8.00;7.67;;;;;27.32;34.75;101130.16;5075793;27;45446;-68
2023/07/07 09:25:03;;;;;;;;;5.00;5.00;;;;;27.25;34.52;101130.34;5078057;27;45486;-67
2023/07/07 09:27:35;;;;;;;;;8.00;8.00;;;;;27.26;35.16;101131.16;5079422;27;45745;-70
2023/07/07 09:30:13;;;;;;;;;8.00;8.00;;;;;27.25;34.71;101126.78;5079092;27;46507;-68
2023/07/07 09:32:39;;;;;;;;;9.00;9.00;;;;;27.20;35.73;101132.94;5078860;28;45368;-69
2023/07/07 09:35:12;;;;;;;;;14.67;10.67;;;;;27.28;36.24;101131.75;5078486;27;45462;-68
2023/07/07 09:38:00;;;;;;;;;6.33;6.33;;;;;27.32;35.90;101113.78;5076636;28;45498;-69
2023/07/07 09:40:49;;;;;;;;;8.00;8.00;;;;;27.36;36.29;101119.59;5062823;28;46646;-68
2023/07/07 09:43:40;;;;;;;;;9.67;8.33;;;;;27.38;35.93;101118.25;5080557;27;45541;-68
2023/07/07 09:46:34;;;;;;;;;10.00;8.67;;;;;27.43;36.01;101121.09;5098803;27;45513;-68
2023/07/07 09:49:41;;;;;;;;;10.67;8.33;;;;;27.51;36.39;101120.69;5080750;27;45356;-66
2023/07/07 09:52:28;;;;;;;;;10.00;10.00;;;;;27.58;36.28;101118.59;5060832;28;48464;-68
2023/07/07 09:54:55;;;;;;;;;11.67;10.67;;;;;27.42;35.17;101078.47;5087988;27;45282;-68
2023/07/07 09:57:37;;;;;;;;;10.67;9.00;;;;;27.69;35.85;101118.81;5074665;28;45493;-68
2023/07/07 10:00:04;;;;;;;;;12.00;8.33;;;;;27.71;35.98;101106.56;5073260;27;45453;-71
2023/07/07 10:02:31;;;;;;;;;9.33;9.33;;;;;27.77;35.52;101121.13;5075134;27;46129;-69
2023/07/07 10:05:03;;;;;;;;;8.33;8.33;;;;;27.69;34.86;101103.25;5074073;27;45472;-70
2023/07/07 10:07:37;;;;;;;;;11.33;10.33;;;;;27.82;35.61;101118.47;5077685;28;45566;-68
2023/07/07 10:10:03;;;;;;;;;10.00;8.33;;;;;27.75;35.17;101112.34;5059013;28;45414;-69
2023/07/07 10:12:29;;;;;;;;;12.67;9.67;;;;;27.75;35.88;101109.63;5078363;28;46259;-68
2023/07/07 10:14:55;;;;;;;;;9.67;8.33;;;;;27.75;36.09;101109.63;5059842;28;46257;-70
2023/07/07 10:17:50;;;;;;;;;11.00;9.33;;;;;27.78;35.67;101106.38;5058521;28;45360;-71
2023/07/07 10:20:16;;;;;;;;;12.67;11.00;;;;;26.62;35.81;100918.50;5060778;28;45565;-68
2023/07/07 10:22:42;;;;;;;;;9.67;9.00;;;;;27.76;36.12;101106.63;5059481;27;47661;-69
2023/07/07 10:25:13;;;;;;;;;10.67;9.00;;;;;27.41;35.92;101048.66;5054624;28;45511;-68
2023/07/07 10:27:46;;;;;;;;;10.00;10.00;;;;;27.37;35.80;101042.88;5053893;28;45404;-69
2023/07/07 10:30:12;;;;;;;;;11.67;9.33;;;;;27.45;35.98;101047.94;5075930;27;45590;-67
2023/07/07 10:32:38;;;;;;;;;11.67;11.00;;;;;27.82;36.14;101094.72;5078085;27;46209;-68
2023/07/07 10:35:07;;;;;;;;;8.67;8.00;;;;;27.27;36.23;101001.78;5077348;27;48051;-69
2023/07/07 10:37:36;;;;;;;;;12.67;9.33;;;;;27.79;35.62;101076.09;5059899;28;45366;-67
2023/07/07 10:40:03;;;;;;;;;10.00;8.33;;;;;27.94;35.72;101091.06;5078311;27;45478;-69
2023/07/07 10:42:30;;;;;;;;;8.33;7.33;;;;;27.94;34.87;101088.31;5059866;28;48996;-68
2023/07/07 10:44:58;;;;;;;;;9.67;8.67;;;;;27.97;35.25;101093.28;5078335;27;45289;-69
2023/07/07 10:47:32;;;;;;;;;8.33;6.00;;;;;28.05;35.04;101095.63;5078389;28;45198;-69
2023/07/07 10:50:00;;;;;;;;;8.00;8.00;;;;;28.08;35.28;101097.84;5059307;28;45248;-70
2023/07/07 10:52:50;;;;;;;;;10.33;8.00;;;;;28.11;35.89;101100.06;5077538;27;45672;-69
2023/07/07 10:55:31;;;;;;;;;6.00;6.00;;;;;27.82;35.64;101031.03;5078159;27;45431;-68
2023/07/07 10:58:27;;;;;;;;;12.00;10.33;;;;;28.21;35.16;101088.44;5051641;28;45535;-69
2023/07/07 11:00:58;;;;;;;;;8.00;7.33;;;;;28.24;35.92;101090.69;5052128;28;45464;-70
2023/07/07 11:03:59;;;;;;;;;6.33;5.33;;;;;28.28;33.90;101084.50;5078037;28;45482;-70
2023/07/07 11:07:03;;;;;;;;;8.33;5.33;;;;;28.27;34.43;101079.28;5077907;27;45337;-69
2023/07/07 11:09:58;;;;;;;;;6.67;6.67;;;;;28.35;35.58;101078.81;4978522;28;45534;-70
2023/07/07 11:12:41;;;;;;;;;9.00;9.00;;;;;28.39;33.89;101079.97;5075863;28;45633;-67
2023/07/07 11:15:30;;;;;;;;;5.33;5.00;;;;;28.29;33.96;101047.84;5077679;27;46482;-68
2023/07/07 11:18:15;;;;;;;;;6.67;5.67;;;;;28.46;33.85;101059.56;5059630;28;45425;-69
2023/07/07 11:21:01;;;;;;;;;7.00;7.00;;;;;28.45;33.80;101052.44;5087582;27;45497;-68
2023/07/07 11:23:52;;;;;;;;;7.67;6.00;;;;;27.99;33.51;100965.41;5098224;27;45453;-68
2023/07/07 11:26:43;;;;;;;;;7.33;6.33;;;;;28.24;33.40;101003.19;5079252;27;46372;-68
2023/07/07 11:29:22;;;;;;;;;8.33;7.33;;;;;28.57;33.82;101038.59;5059951;27;45246;-68
2023/07/07 11:32:16;;;;;;;;;6.00;5.00;;;;;28.66;33.46;101036.25;5077815;27;45442;-69
2023/07/07 11:34:47;;;;;;;;;5.33;4.33;;;;;28.71;32.07;101034.41;5077655;27;45324;-68
2023/07/07 11:37:28;;;;;;;;;5.67;5.00;;;;;28.74;31.69;101038.53;5059389;28;48284;-69